Change the Weather History Date:

Friday, March 8, 2013

  Actual Average (KMAF) Record (KMAF)
Temperature  
Mean Temperature 66 °F 54 °F  
Max Temperature 78 °F 68 °F 86 °F (1951)
Min Temperature 54 °F 39 °F 18 °F (1932)
Degree Days  
Heating Degree Days 0 12  
Month to date heating degree days 100  
Since 1 July heating degree days 2337  
Cooling Degree Days 1 0  
Month to date cooling degree days 0  
Year to date cooling degree days 2  
Growing Degree Days 16 (Base 50)    
Moisture  
Dew Point 47 °F    
Average Humidity 56    
Maximum Humidity 78    
Minimum Humidity 28    
Precipitation  
Precipitation 0.00 in 0.02 in 0.58 in (1953)
Month to date precipitation 0.16  
Year to date precipitation 1.43  
Snow  
Snow 0.00 in - - ()
Month to date snowfall  
Since 1 July snowfall  
Snow Depth -    
Sea Level Pressure  
Sea Level Pressure 29.92 in    
Wind  
Wind Speed 12 mph (South)    
Max Wind Speed 21 mph    
Max Gust Speed 30 mph    
Visibility 10 miles    
Events      
T = Trace of Precipitation, MM = Missing Value Source: NWS Daily Summary

Daily Weather History Graph

Daily Weather History Graph

Search for Another Location

Airport or City:

Trip Planner

Search our weather history database for the weather conditions in past years. The results will help you decide how hot, cold, wet, or windy it might be!

Date:

Astronomy

Mar. 08, 2013 Rise Set
Actual Time 7:08 AM CST 6:53 PM CST
Civil Twilight 6:44 AM CST 7:17 PM CST
Nautical Twilight 6:15 AM CST 7:46 PM CST
Astronomical Twilight 5:47 AM CST 8:14 PM CST
Moon 4:45 AM CST (3/8) 3:58 PM CST (3/8)
Length of Visible Light 12h 33m
Length of Day
11h 44m
Waning Crescent, 11% of the Moon is Illuminated
Mar 8
Waning Crescent
Mar 11
New
Mar 19
First Quarter
Mar 27
Full
Apr 2
Last Quarter

Hourly Weather History & Observations

Time (CST) Temp. Dew Point Humidity Pressure Visibility Wind Dir Wind Speed Gust Speed Precip Events Conditions
12:15 AM 54.5 °F 43.7 °F 67% 30.00 in 10.0 mi South 10.4 mph - N/A   Clear
12:35 AM 54.5 °F 43.7 °F 67% 29.99 in 10.0 mi South 9.2 mph - N/A   Clear
12:55 AM 55.2 °F 44.6 °F 67% 29.99 in 10.0 mi South 11.5 mph - N/A   Clear
1:15 AM 55.8 °F 45.1 °F 67% 29.99 in 10.0 mi South 12.7 mph 19.6 mph N/A   Clear
1:35 AM 56.1 °F 45.7 °F 68% 29.99 in 10.0 mi South 11.5 mph - N/A   Clear
1:55 AM 55.8 °F 45.9 °F 69% 29.98 in 10.0 mi South 10.4 mph - N/A   Clear
2:15 AM 56.5 °F 46.6 °F 69% 29.99 in 10.0 mi South 13.8 mph 18.4 mph N/A   Clear
2:35 AM 57.7 °F 47.3 °F 68% 30.00 in 10.0 mi SSW 11.5 mph - N/A   Clear
2:55 AM 57.9 °F 47.3 °F 68% 29.99 in 10.0 mi SSW 13.8 mph 21.9 mph N/A   Clear
3:15 AM 57.2 °F 47.1 °F 69% 29.99 in 10.0 mi SSW 12.7 mph - N/A   Clear
3:35 AM 56.7 °F 46.9 °F 70% 29.99 in 10.0 mi SSW 15.0 mph - N/A   Clear
3:55 AM 57.2 °F 46.6 °F 68% 29.98 in 10.0 mi SSW 12.7 mph 20.7 mph N/A   Clear
4:15 AM 56.8 °F 46.0 °F 67% 29.98 in 10.0 mi SSW 13.8 mph - N/A   Clear
4:35 AM 56.8 °F 45.9 °F 67% 29.98 in 10.0 mi SSW 11.5 mph - N/A   Scattered Clouds
4:55 AM 56.7 °F 45.7 °F 67% 29.99 in 10.0 mi SSW 11.5 mph - N/A   Mostly Cloudy
5:15 AM 56.5 °F 45.7 °F 67% 29.99 in 10.0 mi SSW 12.7 mph - N/A   Overcast
5:35 AM 56.3 °F 45.5 °F 67% 29.99 in 10.0 mi SSW 9.2 mph - N/A   Overcast
5:55 AM 56.3 °F 45.5 °F 67% 29.98 in 10.0 mi WSW 6.9 mph - N/A   Overcast
6:15 AM 56.7 °F 45.0 °F 65% 30.00 in 10.0 mi South 12.7 mph - N/A   Overcast
6:35 AM 56.5 °F 45.1 °F 66% 30.01 in 10.0 mi SW 11.5 mph 17.3 mph N/A   Overcast
6:55 AM 56.7 °F 45.3 °F 66% 30.00 in 10.0 mi South 4.6 mph - N/A   Overcast
7:15 AM 55.8 °F 45.9 °F 69% 29.99 in 10.0 mi South 5.8 mph - N/A   Overcast
7:35 AM 55.2 °F 46.8 °F 73% 29.99 in 10.0 mi South 5.8 mph - N/A   Overcast
7:55 AM 54.9 °F 47.5 °F 76% 29.98 in 10.0 mi SSE 6.9 mph - N/A   Overcast
8:15 AM 55.4 °F 48.0 °F 76% 29.98 in 10.0 mi South 8.1 mph - N/A   Overcast
8:35 AM 56.3 °F 49.1 °F 77% 29.99 in 10.0 mi South 6.9 mph - N/A   Overcast
8:55 AM 57.4 °F 49.6 °F 75% 30.01 in 10.0 mi SSW 10.4 mph - N/A   Mostly Cloudy
9:15 AM 58.1 °F 50.0 °F 74% 30.01 in 10.0 mi SSW 12.7 mph - N/A   Mostly Cloudy
9:35 AM 59.4 °F 50.0 °F 71% 30.01 in 10.0 mi SSW 11.5 mph - N/A   Overcast
9:55 AM 61.2 °F 49.6 °F 66% 30.01 in 10.0 mi SSW 11.5 mph - N/A   Overcast
10:15 AM 62.8 °F 49.3 °F 61% 30.01 in 10.0 mi SSW 11.5 mph - N/A   Overcast
10:35 AM 65.5 °F 47.8 °F 53% 30.00 in 10.0 mi South 13.8 mph 18.4 mph N/A   Scattered Clouds
11:15 AM 70.7 °F 44.6 °F 39% 29.99 in 10.0 mi SSW 11.5 mph 18.4 mph N/A   Clear
11:35 AM 71.8 °F 44.4 °F 37% 29.98 in 10.0 mi SSW 6.9 mph 11.5 mph N/A   Clear
11:55 AM 72.7 °F 43.2 °F 35% 29.98 in 10.0 mi SSW 12.7 mph 20.7 mph N/A   Clear
12:15 PM 73.6 °F 42.8 °F 33% 29.96 in 10.0 mi SSW 15.0 mph 20.7 mph N/A   Clear
12:35 PM 73.9 °F 43.5 °F 34% 29.96 in 10.0 mi SSW 12.7 mph 19.6 mph N/A   Clear
12:55 PM 74.8 °F 43.9 °F 33% 29.94 in 10.0 mi South 15.0 mph 20.7 mph N/A   Clear
1:15 PM 74.8 °F 43.3 °F 32% 29.93 in 10.0 mi South 12.7 mph 21.9 mph N/A   Clear
1:35 PM 75.4 °F 41.9 °F 30% 29.91 in 10.0 mi South 10.4 mph 21.9 mph N/A   Clear
1:55 PM 75.6 °F 43.0 °F 31% 29.90 in 10.0 mi South 12.7 mph 21.9 mph N/A   Scattered Clouds
2:15 PM 76.1 °F 44.1 °F 32% 29.89 in 10.0 mi South 13.8 mph 24.2 mph N/A   Scattered Clouds
2:35 PM 76.5 °F 44.1 °F 31% 29.87 in 10.0 mi South 11.5 mph 24.2 mph N/A   Scattered Clouds
2:55 PM 75.6 °F 43.7 °F 32% 29.87 in 10.0 mi South 12.7 mph 25.3 mph N/A   Scattered Clouds
3:15 PM 76.8 °F 43.5 °F 30% 29.86 in 10.0 mi SSW 13.8 mph 21.9 mph N/A   Clear
3:35 PM 77.0 °F 42.6 °F 29% 29.86 in 10.0 mi SSW 17.3 mph 24.2 mph N/A   Scattered Clouds
3:55 PM 78.6 °F 42.4 °F 28% 29.85 in 10.0 mi SSW 16.1 mph 23.0 mph N/A   Mostly Cloudy
4:15 PM 76.6 °F 42.8 °F 30% 29.85 in 10.0 mi South 13.8 mph 24.2 mph N/A   Overcast
4:35 PM 76.1 °F 44.6 °F 33% 29.85 in 10.0 mi South 15.0 mph 20.7 mph N/A   Mostly Cloudy
4:55 PM 73.8 °F 45.3 °F 36% 29.85 in 10.0 mi SSE 12.7 mph 21.9 mph N/A   Mostly Cloudy
5:15 PM 76.1 °F 44.1 °F 32% 29.84 in 10.0 mi South 12.7 mph 23.0 mph N/A   Scattered Clouds
5:35 PM 75.4 °F 43.9 °F 32% 29.84 in 10.0 mi South 15.0 mph 19.6 mph N/A   Clear
5:55 PM 73.4 °F 46.6 °F 38% 29.83 in 10.0 mi SSE 15.0 mph 24.2 mph N/A   Clear
6:15 PM 72.1 °F 46.6 °F 40% 29.83 in 10.0 mi SSE 15.0 mph 21.9 mph N/A   Clear
6:35 PM 71.8 °F 46.8 °F 41% 29.82 in 10.0 mi SSE 17.3 mph 27.6 mph N/A   Clear
6:55 PM 70.0 °F 46.0 °F 42% 29.82 in 10.0 mi South 13.8 mph 19.6 mph N/A   Clear
7:15 PM 69.1 °F 46.9 °F 45% 29.82 in 10.0 mi South 12.7 mph 25.3 mph N/A   Clear
7:35 PM 68.0 °F 47.3 °F 47% 29.83 in 10.0 mi SSE 13.8 mph - N/A   Clear
7:55 PM 67.3 °F 48.6 °F 51% 29.82 in 10.0 mi South 20.7 mph 29.9 mph N/A   Clear
8:15 PM 66.6 °F 50.4 °F 56% 29.83 in 10.0 mi SSE 18.4 mph 25.3 mph N/A   Scattered Clouds
8:35 PM 65.1 °F 50.4 °F 59% 29.83 in 10.0 mi SSE 18.4 mph 26.5 mph N/A   Scattered Clouds
8:55 PM 63.5 °F 51.1 °F 64% 29.84 in 10.0 mi SSE 16.1 mph 20.7 mph N/A   Clear
9:15 PM 63.0 °F 52.3 °F 68% 29.84 in 10.0 mi SSE 18.4 mph 28.8 mph N/A   Scattered Clouds
9:35 PM 61.9 °F 52.7 °F 72% 29.84 in 10.0 mi South 13.8 mph 20.7 mph N/A   Scattered Clouds
9:55 PM 61.5 °F 52.7 °F 73% 29.84 in 10.0 mi South 18.4 mph 25.3 mph N/A   Scattered Clouds
10:15 PM 60.8 °F 53.1 °F 76% 29.83 in 10.0 mi South 16.1 mph 24.2 mph N/A   Overcast
10:35 PM 60.1 °F 52.7 °F 77% 29.83 in 10.0 mi South 12.7 mph 21.9 mph N/A   Mostly Cloudy
10:55 PM 59.9 °F 52.7 °F 77% 29.83 in 10.0 mi South 19.6 mph 25.3 mph N/A   Mostly Cloudy
11:15 PM 59.5 °F 52.7 °F 78% 29.81 in 10.0 mi South 15.0 mph 23.0 mph N/A   Mostly Cloudy
11:35 PM 59.7 °F 52.7 °F 78% 29.84 in 10.0 mi WSW 8.1 mph - N/A   Overcast
11:55 PM 59.9 °F 52.7 °F 77% 29.82 in 10.0 mi SSW 13.8 mph 17.3 mph N/A   Overcast